KOWD/OWD METAR and TAF weather

Enter ICAO airport designator
Station Type Date Time Source
KOWD METAR 2019/02/23 22:53 UTC NOAA

KOWD 232253Z 16003KT 10SM CLR 03/M07 A3034 RMK AO2 SLP275 T00281067


Station Type Date Time Source
KOWD Decoded METAR 2019/02/23 22:53 UTC NOAA

NORWOOD MEMORIAL AIRPORT, MA, United States (KOWD) 42-11N 71-10W 19M
Feb 23, 2019 - 05:53 PM EST / 2019.02.23 2253 UTC
Wind: from the SSE (160 degrees) at 3 MPH (3 KT):0
Visibility: 10 mile(s):0
Sky conditions: clear
Temperature: 37.0 F (2.8 C)
Dew Point: 19.9 F (-6.7 C)
Relative Humidity: 49%
Pressure (altimeter): 30.34 in. Hg (1027 hPa)
ob: KOWD 232253Z 16003KT 10SM CLR 03/M07 A3034 RMK AO2 SLP275 T00281067
cycle: 23

Station Type Date Time Source
KOWD TAF UTC NOAA

Error!


Example: see airport list